Time;durP1;ratioP1;P1;durP2;ratioP2;P2;SDS_P1;SDS_P2;PMS_P1;PMS_P2;Temp;Humidity;BMP_temperature;BMP_pressure;BME280_temperature;BME280_humidity;BME280_pressure;Samples;Min_cycle;Max_cycle;Signal;HPM_P1;HPM_P2
2021/03/08 10:36:48;;;;;;;16.58;10.63;;;;;;;;;;5502061;22;15144052;-67
2021/03/08 10:39:14;;;;;;;15.20;10.38;;;;;;;;;;6162152;23;20380;-67
2021/03/08 10:41:40;;;;;;;18.30;10.57;;;;;;;;;;6159931;23;20059;-67
2021/03/08 10:44:07;;;;;;;14.95;10.38;;;;;;;;;;6159527;23;20009;-67
2021/03/08 10:46:34;;;;;;;18.58;10.65;;;;;;;;;;6161306;23;20012;-66
2021/03/08 10:49:02;;;;;;;14.85;10.18;;;;;;;;;;6134302;23;20089;-66
2021/03/08 10:51:29;;;;;;;15.75;10.40;;;;;;;;;;6160954;23;20009;-70
2021/03/08 10:53:56;;;;;;;15.85;9.02;;;;;;;;;;6174194;23;20012;-70
2021/03/08 10:56:22;;;;;;;13.02;9.60;;;;;;;;;;6161422;23;19997;-69
2021/03/08 10:58:48;;;;;;;14.65;9.13;;;;;;;;;;6159157;23;20311;-73
2021/03/08 11:01:13;;;;;;;13.77;9.00;;;;;;;;;;6159477;23;20005;-72
2021/03/08 11:03:40;;;;;;;12.40;8.00;;;;;;;;;;6162291;23;20073;-70
2021/03/08 11:06:08;;;;;;;12.82;7.65;;;;;;;;;;6161876;23;20040;-71
2021/03/08 11:08:34;;;;;;;11.55;8.52;;;;;;;;;;6136277;23;20012;-70
2021/03/08 11:11:00;;;;;;;14.10;9.82;;;;;;;;;;6162653;23;20490;-71
2021/03/08 11:13:35;;;;;;;12.50;7.32;;;;;;;;;;6160820;23;20036;-70
2021/03/08 11:16:10;;;;;;;36.67;8.80;;;;;;;;;;6160321;23;19998;-70
2021/03/08 11:18:35;;;;;;;11.10;7.72;;;;;;;;;;6161466;23;20068;-69
2021/03/08 11:21:10;;;;;;;15.73;7.50;;;;;;;;;;6160827;23;20044;-70
2021/03/08 11:23:36;;;;;;;13.00;7.15;;;;;;;;;;6158516;23;20001;-71
2021/03/08 11:26:09;;;;;;;14.82;7.45;;;;;;;;;;6155362;23;20001;-70
2021/03/08 11:28:38;;;;;;;168.38;44.03;;;;;;;;;;6152071;23;20005;-70
2021/03/08 11:31:04;;;;;;;9.73;6.53;;;;;;;;;;6132159;23;19998;-70
2021/03/08 11:33:34;;;;;;;16.42;7.55;;;;;;;;;;6134860;23;20427;-72
2021/03/08 11:35:59;;;;;;;23.33;10.48;;;;;;;;;;6126743;23;20013;-70
2021/03/08 11:38:25;;;;;;;19.73;8.88;;;;;;;;;;6124605;23;20004;-68
2021/03/08 11:40:51;;;;;;;21.25;8.30;;;;;;;;;;6124021;23;20309;-69
2021/03/08 11:43:17;;;;;;;21.55;8.27;;;;;;;;;;6124517;23;20084;-69
2021/03/08 11:45:42;;;;;;;13.98;7.93;;;;;;;;;;6127281;23;20085;-69
2021/03/08 11:48:08;;;;;;;29.92;10.98;;;;;;;;;;6119868;23;20079;-69
2021/03/08 11:50:34;;;;;;;28.20;9.60;;;;;;;;;;6123701;23;20005;-69
2021/03/08 11:53:00;;;;;;;22.05;9.15;;;;;;;;;;6123960;23;20002;-69
2021/03/08 11:55:25;;;;;;;12.88;8.85;;;;;;;;;;6122929;23;20081;-69
2021/03/08 11:57:51;;;;;;;14.80;8.55;;;;;;;;;;6125223;23;20025;-68
2021/03/08 12:00:18;;;;;;;49.22;10.45;;;;;;;;;;6099620;23;20022;-68
2021/03/08 12:02:44;;;;;;;57.47;14.55;;;;;;;;;;6097837;23;20009;-68
2021/03/08 12:05:09;;;;;;;48.97;12.77;;;;;;;;;;6123116;23;20009;-69
2021/03/08 12:07:35;;;;;;;10.77;7.93;;;;;;;;;;6098193;23;20036;-69
2021/03/08 12:10:02;;;;;;;13.55;8.07;;;;;;;;;;6098457;23;20098;-70
2021/03/08 12:12:28;;;;;;;64.45;13.85;;;;;;;;;;6123344;23;20002;-71
2021/03/08 12:14:53;;;;;;;16.35;7.35;;;;;;;;;;6097042;23;20083;-69
2021/03/08 12:17:18;;;;;;;19.25;8.43;;;;;;;;;;6120917;23;20002;-69
2021/03/08 12:19:44;;;;;;;28.27;9.82;;;;;;;;;;6098655;23;20006;-71
2021/03/08 12:22:09;;;;;;;16.15;8.20;;;;;;;;;;6122064;23;20073;-72
2021/03/08 12:24:35;;;;;;;20.52;8.77;;;;;;;;;;6095917;23;20084;-71
2021/03/08 12:27:00;;;;;;;14.05;8.23;;;;;;;;;;6121657;23;20010;-67
2021/03/08 12:29:25;;;;;;;26.52;10.50;;;;;;;;;;6121726;23;20021;-67
2021/03/08 12:31:51;;;;;;;15.43;8.27;;;;;;;;;;6123136;23;20041;-69
2021/03/08 12:34:16;;;;;;;15.77;8.20;;;;;;;;;;6123639;23;20085;-69
2021/03/08 12:36:42;;;;;;;15.73;8.52;;;;;;;;;;6121680;23;20026;-69
2021/03/08 12:39:07;;;;;;;20.95;8.43;;;;;;;;;;6122249;23;20008;-70
2021/03/08 12:41:32;;;;;;;18.42;10.60;;;;;;;;;;6121915;23;20073;-69
2021/03/08 12:43:58;;;;;;;16.65;9.40;;;;;;;;;;6123261;23;20002;-69
2021/03/08 12:46:24;;;;;;;16.08;9.02;;;;;;;;;;6097524;23;19998;-71
2021/03/08 12:48:50;;;;;;;13.20;9.43;;;;;;;;;;6123027;23;20427;-69
2021/03/08 12:51:15;;;;;;;17.98;10.25;;;;;;;;;;6123866;23;20077;-69
2021/03/08 12:53:41;;;;;;;14.93;9.05;;;;;;;;;;6098435;23;20346;-71
2021/03/08 12:56:06;;;;;;;15.82;10.38;;;;;;;;;;6123033;23;20002;-72
2021/03/08 12:58:31;;;;;;;14.38;10.25;;;;;;;;;;6098167;23;20002;-72
2021/03/08 13:00:57;;;;;;;20.00;10.63;;;;;;;;;;6121947;23;20589;-70
2021/03/08 13:03:24;;;;;;;15.43;9.65;;;;;;;;;;6122225;23;20020;-70
2021/03/08 13:05:50;;;;;;;15.15;9.93;;;;;;;;;;6123487;23;20446;-69
2021/03/08 13:08:15;;;;;;;13.07;9.18;;;;;;;;;;6098560;23;20002;-70
2021/03/08 13:10:41;;;;;;;16.77;8.90;;;;;;;;;;6122085;23;20005;-72
2021/03/08 13:13:06;;;;;;;20.27;9.90;;;;;;;;;;6098538;23;20002;-71
2021/03/08 13:15:32;;;;;;;17.52;8.82;;;;;;;;;;6123654;23;20511;-69
2021/03/08 13:17:57;;;;;;;18.75;10.25;;;;;;;;;;6121181;23;19998;-70
2021/03/08 13:20:22;;;;;;;27.98;8.93;;;;;;;;;;6123942;23;20002;-72
2021/03/08 13:22:48;;;;;;;20.42;8.25;;;;;;;;;;6122116;23;20014;-71
2021/03/08 13:25:13;;;;;;;16.20;8.50;;;;;;;;;;6122263;23;20327;-72
2021/03/08 13:27:39;;;;;;;14.23;9.23;;;;;;;;;;6123839;23;20411;-71
2021/03/08 13:30:05;;;;;;;16.27;10.15;;;;;;;;;;6121769;23;20058;-72
2021/03/08 13:32:31;;;;;;;18.05;9.75;;;;;;;;;;6122291;23;20406;-73
2021/03/08 13:34:57;;;;;;;16.73;11.10;;;;;;;;;;6121784;23;20001;-70
2021/03/08 13:37:22;;;;;;;17.55;10.27;;;;;;;;;;6097459;23;20025;-71
2021/03/08 13:39:48;;;;;;;17.33;10.70;;;;;;;;;;6097883;23;20006;-71
2021/03/08 13:42:13;;;;;;;19.55;12.25;;;;;;;;;;6121940;23;20088;-68
2021/03/08 13:44:38;;;;;;;12.25;8.50;;;;;;;;;;6121845;23;19997;-69
2021/03/08 13:47:04;;;;;;;20.15;10.98;;;;;;;;;;6095930;23;20084;-71
2021/03/08 13:49:29;;;;;;;15.05;9.57;;;;;;;;;;6123574;23;20012;-70
2021/03/08 13:51:55;;;;;;;15.43;11.15;;;;;;;;;;6123808;23;20411;-73
2021/03/08 13:54:20;;;;;;;20.08;10.55;;;;;;;;;;6121958;23;20006;-65
2021/03/08 13:56:45;;;;;;;19.13;11.35;;;;;;;;;;6120892;23;20408;-63
2021/03/08 13:59:11;;;;;;;27.90;12.38;;;;;;;;;;6120717;23;20247;-62
2021/03/08 14:01:37;;;;;;;15.55;10.38;;;;;;;;;;6095162;23;20013;-62
2021/03/08 14:04:02;;;;;;;16.65;9.65;;;;;;;;;;6122951;23;20009;-62
2021/03/08 14:06:27;;;;;;;16.92;11.48;;;;;;;;;;6121078;23;20021;-63
2021/03/08 14:08:53;;;;;;;20.67;10.05;;;;;;;;;;6122332;23;20006;-63
2021/03/08 14:11:18;;;;;;;20.42;9.93;;;;;;;;;;6122162;23;20004;-63
2021/03/08 14:13:43;;;;;;;17.10;9.27;;;;;;;;;;6119346;23;20002;-63
2021/03/08 14:16:09;;;;;;;20.05;10.77;;;;;;;;;;6120888;23;20028;-63
2021/03/08 14:18:34;;;;;;;14.32;8.70;;;;;;;;;;6120724;23;20006;-63
2021/03/08 14:21:00;;;;;;;14.30;9.05;;;;;;;;;;6121127;23;19997;-62
2021/03/08 14:23:25;;;;;;;16.02;8.85;;;;;;;;;;6096940;23;20470;-62
2021/03/08 14:25:50;;;;;;;13.52;7.90;;;;;;;;;;6123832;23;19990;-64
2021/03/08 14:28:16;;;;;;;19.60;8.88;;;;;;;;;;6122541;23;20001;-63
2021/03/08 14:30:41;;;;;;;18.92;10.15;;;;;;;;;;6123002;23;20057;-63
2021/03/08 14:33:07;;;;;;;16.45;9.73;;;;;;;;;;6121449;23;19998;-63
2021/03/08 14:35:32;;;;;;;18.20;11.10;;;;;;;;;;6120125;23;20026;-63
2021/03/08 14:37:58;;;;;;;14.43;9.95;;;;;;;;;;6122481;23;20028;-63
2021/03/08 14:40:27;;;;;;;13.75;9.45;;;;;;;;;;6095987;23;20014;-64
2021/03/08 14:42:53;;;;;;;16.67;9.90;;;;;;;;;;6120060;23;20009;-64
2021/03/08 14:45:18;;;;;;;15.43;9.52;;;;;;;;;;6122762;23;20446;-66
2021/03/08 14:47:44;;;;;;;30.75;11.15;;;;;;;;;;6123255;23;20030;-64
2021/03/08 14:50:10;;;;;;;18.80;9.63;;;;;;;;;;6122582;23;20006;-64
2021/03/08 14:52:35;;;;;;;21.95;9.90;;;;;;;;;;6122953;23;20037;-69
2021/03/08 14:55:00;;;;;;;21.67;10.32;;;;;;;;;;6121481;23;19998;-65
2021/03/08 14:57:26;;;;;;;16.48;9.90;;;;;;;;;;6096497;23;20009;-66
2021/03/08 14:59:51;;;;;;;22.30;10.30;;;;;;;;;;6122892;23;20106;-66
2021/03/08 15:02:17;;;;;;;20.95;9.60;;;;;;;;;;6125356;23;20033;-65
2021/03/08 15:04:42;;;;;;;22.65;10.60;;;;;;;;;;6124117;23;20500;-63
2021/03/08 15:07:07;;;;;;;17.85;11.13;;;;;;;;;;6125297;23;19994;-63
2021/03/08 15:09:33;;;;;;;19.88;11.75;;;;;;;;;;6124410;23;20064;-62
2021/03/08 15:11:58;;;;;;;20.45;11.88;;;;;;;;;;6123206;23;20002;-63
2021/03/08 15:14:24;;;;;;;17.27;11.23;;;;;;;;;;6125279;23;19994;-62
2021/03/08 15:16:49;;;;;;;18.50;10.80;;;;;;;;;;6122072;23;19998;-62
2021/03/08 15:19:15;;;;;;;17.27;11.25;;;;;;;;;;6121565;23;20044;-63
2021/03/08 15:21:40;;;;;;;18.73;10.82;;;;;;;;;;6122356;23;20017;-62
2021/03/08 15:24:06;;;;;;;20.80;11.90;;;;;;;;;;6121391;23;20620;-61
2021/03/08 15:26:31;;;;;;;20.58;12.13;;;;;;;;;;6122419;23;20092;-61
2021/03/08 15:28:57;;;;;;;19.55;11.20;;;;;;;;;;6123502;23;20005;-61
2021/03/08 15:31:22;;;;;;;22.90;12.23;;;;;;;;;;6123255;23;20028;-60
2021/03/08 15:33:47;;;;;;;21.38;12.15;;;;;;;;;;6124758;23;20004;-61
2021/03/08 15:36:13;;;;;;;18.90;12.18;;;;;;;;;;6122826;23;20020;-61
2021/03/08 15:38:38;;;;;;;29.48;11.32;;;;;;;;;;6124934;23;20001;-61
2021/03/08 15:41:03;;;;;;;21.60;12.88;;;;;;;;;;6098532;23;20017;-61
2021/03/08 15:43:29;;;;;;;23.77;12.50;;;;;;;;;;6121992;23;20427;-60
2021/03/08 15:45:54;;;;;;;25.83;11.93;;;;;;;;;;6122909;23;20323;-61
2021/03/08 15:48:20;;;;;;;28.33;12.40;;;;;;;;;;6122647;23;20458;-61
2021/03/08 15:50:45;;;;;;;19.95;12.05;;;;;;;;;;6123938;23;19998;-60
2021/03/08 15:53:11;;;;;;;20.75;11.55;;;;;;;;;;6097948;23;20089;-60
2021/03/08 15:55:36;;;;;;;18.52;10.23;;;;;;;;;;6122458;23;20430;-61
2021/03/08 15:58:01;;;;;;;22.20;11.98;;;;;;;;;;6124092;23;20004;-62
2021/03/08 16:00:27;;;;;;;17.38;10.43;;;;;;;;;;6123806;23;20008;-61
2021/03/08 16:02:52;;;;;;;21.95;12.45;;;;;;;;;;6122849;23;20017;-62
2021/03/08 16:05:17;;;;;;;26.42;13.48;;;;;;;;;;6122793;23;20029;-61
2021/03/08 16:07:43;;;;;;;26.65;12.95;;;;;;;;;;6124529;23;19998;-60
2021/03/08 16:10:09;;;;;;;25.75;13.85;;;;;;;;;;6122977;23;20129;-61
2021/03/08 16:12:34;;;;;;;18.88;11.95;;;;;;;;;;6123972;23;20002;-60
2021/03/08 16:15:00;;;;;;;23.35;12.82;;;;;;;;;;6124834;23;19994;-60
2021/03/08 16:17:26;;;;;;;41.42;13.57;;;;;;;;;;6122583;23;20395;-60
2021/03/08 16:19:53;;;;;;;21.70;11.88;;;;;;;;;;6098351;23;20012;-60
2021/03/08 16:22:18;;;;;;;20.73;12.20;;;;;;;;;;6123284;23;20065;-60
2021/03/08 16:24:44;;;;;;;26.08;13.15;;;;;;;;;;6122936;23;19998;-60
2021/03/08 16:27:09;;;;;;;21.83;12.70;;;;;;;;;;6124810;23;19998;-60
2021/03/08 16:29:35;;;;;;;23.15;12.05;;;;;;;;;;6123015;23;19997;-60
2021/03/08 16:32:00;;;;;;;26.13;13.65;;;;;;;;;;6098757;23;20009;-60
2021/03/08 16:34:26;;;;;;;22.88;12.85;;;;;;;;;;6123587;23;20073;-61
2021/03/08 16:36:51;;;;;;;20.70;13.23;;;;;;;;;;6125142;23;20014;-61
2021/03/08 16:39:17;;;;;;;22.30;12.18;;;;;;;;;;6123323;23;20010;-61
2021/03/08 16:41:42;;;;;;;28.23;11.57;;;;;;;;;;6123554;23;20020;-59
2021/03/08 16:44:08;;;;;;;21.98;11.85;;;;;;;;;;6123980;23;20121;-59
2021/03/08 16:46:33;;;;;;;22.38;12.70;;;;;;;;;;6125047;23;20117;-60
2021/03/08 16:48:59;;;;;;;24.15;11.50;;;;;;;;;;6099294;23;20009;-61
2021/03/08 16:51:24;;;;;;;24.23;12.63;;;;;;;;;;6124508;23;20021;-61
2021/03/08 16:53:50;;;;;;;27.98;14.02;;;;;;;;;;6122895;23;19998;-61
2021/03/08 16:56:15;;;;;;;26.10;14.45;;;;;;;;;;6123610;23;20049;-61
2021/03/08 16:58:40;;;;;;;30.08;14.80;;;;;;;;;;6122376;23;20014;-60
2021/03/08 17:01:06;;;;;;;24.05;11.57;;;;;;;;;;6123968;23;20045;-61
2021/03/08 17:03:31;;;;;;;18.17;10.77;;;;;;;;;;6124867;23;20339;-60
2021/03/08 17:05:56;;;;;;;15.23;8.23;;;;;;;;;;6122591;23;20004;-61
2021/03/08 17:08:22;;;;;;;21.40;9.73;;;;;;;;;;6098747;23;20010;-61
2021/03/08 17:10:47;;;;;;;13.43;6.70;;;;;;;;;;6125496;23;20061;-60
2021/03/08 17:13:13;;;;;;;20.60;7.20;;;;;;;;;;6123227;23;19998;-60
2021/03/08 17:15:39;;;;;;;15.43;7.00;;;;;;;;;;6123075;23;20013;-61
2021/03/08 17:18:05;;;;;;;36.22;7.43;;;;;;;;;;6123802;23;19998;-63
2021/03/08 17:20:31;;;;;;;12.10;6.50;;;;;;;;;;6122816;23;20457;-61
2021/03/08 17:22:56;;;;;;;30.88;6.88;;;;;;;;;;6122562;23;20009;-61
2021/03/08 17:25:22;;;;;;;13.20;6.68;;;;;;;;;;6098818;23;20006;-61
2021/03/08 17:27:47;;;;;;;10.43;5.78;;;;;;;;;;6098202;23;20621;-60
2021/03/08 17:30:15;;;;;;;12.38;7.32;;;;;;;;;;6122725;23;19994;-61
2021/03/08 17:32:40;;;;;;;11.52;5.72;;;;;;;;;;6123757;23;20348;-61
2021/03/08 17:35:07;;;;;;;12.80;7.53;;;;;;;;;;6122401;23;19998;-61
2021/03/08 17:37:32;;;;;;;13.13;7.00;;;;;;;;;;6124473;23;20014;-61
2021/03/08 17:39:58;;;;;;;14.35;6.93;;;;;;;;;;6123130;23;20133;-61
2021/03/08 17:42:25;;;;;;;14.07;7.38;;;;;;;;;;6121864;23;20013;-61
2021/03/08 17:44:52;;;;;;;12.95;7.07;;;;;;;;;;6123745;23;20348;-61
2021/03/08 17:47:17;;;;;;;13.32;6.38;;;;;;;;;;6098538;23;20053;-61
2021/03/08 17:49:43;;;;;;;18.23;7.78;;;;;;;;;;6124183;23;20412;-62
2021/03/08 17:52:08;;;;;;;15.68;7.53;;;;;;;;;;6124709;23;20006;-61
2021/03/08 17:54:33;;;;;;;15.00;7.20;;;;;;;;;;6124564;23;20001;-60
2021/03/08 17:56:59;;;;;;;15.55;7.05;;;;;;;;;;6124340;23;20005;-61
2021/03/08 17:59:24;;;;;;;18.20;9.13;;;;;;;;;;6123365;23;20419;-62
2021/03/08 18:01:49;;;;;;;15.25;8.27;;;;;;;;;;6124539;23;20025;-61
2021/03/08 18:04:15;;;;;;;16.40;8.05;;;;;;;;;;6123399;23;20002;-63
2021/03/08 18:06:40;;;;;;;14.95;8.35;;;;;;;;;;6125700;23;20381;-60
2021/03/08 18:09:06;;;;;;;16.50;9.68;;;;;;;;;;6124126;23;19998;-60
